sensor_id;sensor_type;location;lat;lon;timestamp;P1;durP1;ratioP1;P2;durP2;ratioP2
48935;SDS011;34745;52.276;10.528;2023-03-01T00:00:50;15.37;;;11.13;;
48935;SDS011;34745;52.276;10.528;2023-03-01T00:03:17;16.97;;;10.50;;
48935;SDS011;34745;52.276;10.528;2023-03-01T00:05:46;16.47;;;11.10;;
48935;SDS011;34745;52.276;10.528;2023-03-01T00:08:13;16.87;;;10.53;;
48935;SDS011;34745;52.276;10.528;2023-03-01T00:10:40;16.53;;;10.67;;
48935;SDS011;34745;52.276;10.528;2023-03-01T00:13:07;18.07;;;11.27;;
48935;SDS011;34745;52.276;10.528;2023-03-01T00:15:37;18.70;;;11.50;;
48935;SDS011;34745;52.276;10.528;2023-03-01T00:18:05;21.13;;;12.37;;
48935;SDS011;34745;52.276;10.528;2023-03-01T00:20:32;19.60;;;11.87;;
48935;SDS011;34745;52.276;10.528;2023-03-01T00:23:00;23.10;;;11.93;;
48935;SDS011;34745;52.276;10.528;2023-03-01T00:25:27;18.27;;;11.20;;
48935;SDS011;34745;52.276;10.528;2023-03-01T00:27:54;19.60;;;11.67;;
48935;SDS011;34745;52.276;10.528;2023-03-01T00:30:21;18.13;;;12.00;;
48935;SDS011;34745;52.276;10.528;2023-03-01T00:32:48;18.33;;;11.73;;
48935;SDS011;34745;52.276;10.528;2023-03-01T00:35:15;21.10;;;11.23;;
48935;SDS011;34745;52.276;10.528;2023-03-01T00:37:43;22.03;;;11.20;;
48935;SDS011;34745;52.276;10.528;2023-03-01T00:40:11;15.97;;;10.40;;
48935;SDS011;34745;52.276;10.528;2023-03-01T00:42:42;16.90;;;10.63;;
48935;SDS011;34745;52.276;10.528;2023-03-01T00:45:09;17.87;;;10.27;;
48935;SDS011;34745;52.276;10.528;2023-03-01T00:47:37;16.33;;;10.93;;
48935;SDS011;34745;52.276;10.528;2023-03-01T00:50:04;17.63;;;10.70;;
48935;SDS011;34745;52.276;10.528;2023-03-01T00:52:31;16.23;;;10.50;;
48935;SDS011;34745;52.276;10.528;2023-03-01T00:54:58;14.33;;;10.23;;
48935;SDS011;34745;52.276;10.528;2023-03-01T00:57:27;15.37;;;9.60;;
48935;SDS011;34745;52.276;10.528;2023-03-01T00:59:54;17.10;;;10.60;;
48935;SDS011;34745;52.276;10.528;2023-03-01T01:02:21;19.10;;;10.53;;
48935;SDS011;34745;52.276;10.528;2023-03-01T01:04:48;16.40;;;9.40;;
48935;SDS011;34745;52.276;10.528;2023-03-01T01:07:15;16.97;;;9.50;;
48935;SDS011;34745;52.276;10.528;2023-03-01T01:09:43;17.20;;;10.17;;
48935;SDS011;34745;52.276;10.528;2023-03-01T01:12:10;19.23;;;10.37;;
48935;SDS011;34745;52.276;10.528;2023-03-01T01:14:38;15.90;;;9.60;;
48935;SDS011;34745;52.276;10.528;2023-03-01T01:17:05;16.53;;;9.80;;
48935;SDS011;34745;52.276;10.528;2023-03-01T01:19:32;14.83;;;9.23;;
48935;SDS011;34745;52.276;10.528;2023-03-01T01:21:59;14.10;;;9.27;;
48935;SDS011;34745;52.276;10.528;2023-03-01T01:24:26;17.27;;;9.73;;
48935;SDS011;34745;52.276;10.528;2023-03-01T01:26:54;15.70;;;9.83;;
48935;SDS011;34745;52.276;10.528;2023-03-01T01:29:20;16.37;;;9.80;;
48935;SDS011;34745;52.276;10.528;2023-03-01T01:31:49;13.43;;;9.43;;
48935;SDS011;34745;52.276;10.528;2023-03-01T01:34:17;16.77;;;9.50;;
48935;SDS011;34745;52.276;10.528;2023-03-01T01:36:47;16.40;;;9.70;;
48935;SDS011;34745;52.276;10.528;2023-03-01T01:39:14;20.10;;;10.07;;
48935;SDS011;34745;52.276;10.528;2023-03-01T01:41:42;13.20;;;9.23;;
48935;SDS011;34745;52.276;10.528;2023-03-01T01:44:14;16.00;;;9.27;;
48935;SDS011;34745;52.276;10.528;2023-03-01T01:46:44;17.27;;;10.00;;
48935;SDS011;34745;52.276;10.528;2023-03-01T01:49:19;15.90;;;9.43;;
48935;SDS011;34745;52.276;10.528;2023-03-01T01:51:51;15.47;;;9.00;;
48935;SDS011;34745;52.276;10.528;2023-03-01T01:54:22;16.10;;;9.60;;
48935;SDS011;34745;52.276;10.528;2023-03-01T01:56:55;17.87;;;10.40;;
48935;SDS011;34745;52.276;10.528;2023-03-01T01:59:25;16.27;;;9.33;;
48935;SDS011;34745;52.276;10.528;2023-03-01T02:01:54;18.30;;;9.80;;
48935;SDS011;34745;52.276;10.528;2023-03-01T02:04:22;13.90;;;9.50;;
48935;SDS011;34745;52.276;10.528;2023-03-01T02:06:51;14.37;;;9.70;;
48935;SDS011;34745;52.276;10.528;2023-03-01T02:09:23;15.83;;;9.97;;
48935;SDS011;34745;52.276;10.528;2023-03-01T02:11:51;16.20;;;9.47;;
48935;SDS011;34745;52.276;10.528;2023-03-01T02:14:19;15.03;;;9.60;;
48935;SDS011;34745;52.276;10.528;2023-03-01T02:16:46;16.87;;;9.23;;
48935;SDS011;34745;52.276;10.528;2023-03-01T02:19:21;13.83;;;9.70;;
48935;SDS011;34745;52.276;10.528;2023-03-01T02:22:03;14.47;;;9.63;;
48935;SDS011;34745;52.276;10.528;2023-03-01T02:24:39;15.33;;;9.77;;
48935;SDS011;34745;52.276;10.528;2023-03-01T02:27:20;16.87;;;9.27;;
48935;SDS011;34745;52.276;10.528;2023-03-01T02:29:53;18.23;;;9.50;;
48935;SDS011;34745;52.276;10.528;2023-03-01T02:32:22;18.47;;;9.60;;
48935;SDS011;34745;52.276;10.528;2023-03-01T02:34:51;14.53;;;9.40;;
48935;SDS011;34745;52.276;10.528;2023-03-01T02:37:19;15.93;;;9.27;;
48935;SDS011;34745;52.276;10.528;2023-03-01T02:39:53;14.60;;;9.17;;
48935;SDS011;34745;52.276;10.528;2023-03-01T02:42:26;14.83;;;9.80;;
48935;SDS011;34745;52.276;10.528;2023-03-01T02:44:58;17.43;;;9.63;;
48935;SDS011;34745;52.276;10.528;2023-03-01T02:47:25;15.37;;;9.50;;
48935;SDS011;34745;52.276;10.528;2023-03-01T02:49:53;13.27;;;9.03;;
48935;SDS011;34745;52.276;10.528;2023-03-01T02:52:27;15.30;;;9.23;;
48935;SDS011;34745;52.276;10.528;2023-03-01T02:55:00;14.90;;;9.10;;
48935;SDS011;34745;52.276;10.528;2023-03-01T02:57:32;15.00;;;9.20;;
48935;SDS011;34745;52.276;10.528;2023-03-01T03:00:03;14.57;;;8.67;;
48935;SDS011;34745;52.276;10.528;2023-03-01T03:02:33;13.90;;;9.60;;
48935;SDS011;34745;52.276;10.528;2023-03-01T03:05:05;15.20;;;9.80;;
48935;SDS011;34745;52.276;10.528;2023-03-01T03:07:35;15.13;;;9.60;;
48935;SDS011;34745;52.276;10.528;2023-03-01T03:10:03;16.93;;;10.00;;
48935;SDS011;34745;52.276;10.528;2023-03-01T03:12:35;19.17;;;9.57;;
48935;SDS011;34745;52.276;10.528;2023-03-01T03:15:04;15.40;;;10.00;;
48935;SDS011;34745;52.276;10.528;2023-03-01T03:17:35;17.70;;;10.23;;
48935;SDS011;34745;52.276;10.528;2023-03-01T03:20:03;18.07;;;10.07;;
48935;SDS011;34745;52.276;10.528;2023-03-01T03:22:32;19.47;;;10.20;;
48935;SDS011;34745;52.276;10.528;2023-03-01T03:25:00;15.03;;;10.43;;
48935;SDS011;34745;52.276;10.528;2023-03-01T03:27:28;25.17;;;10.47;;
48935;SDS011;34745;52.276;10.528;2023-03-01T03:29:55;22.20;;;10.80;;
48935;SDS011;34745;52.276;10.528;2023-03-01T03:32:23;16.63;;;9.83;;
48935;SDS011;34745;52.276;10.528;2023-03-01T03:34:50;16.07;;;10.30;;
48935;SDS011;34745;52.276;10.528;2023-03-01T03:37:17;15.23;;;9.57;;
48935;SDS011;34745;52.276;10.528;2023-03-01T03:40:03;16.93;;;10.23;;
48935;SDS011;34745;52.276;10.528;2023-03-01T03:42:41;17.77;;;10.10;;
48935;SDS011;34745;52.276;10.528;2023-03-01T03:45:08;17.97;;;10.30;;
48935;SDS011;34745;52.276;10.528;2023-03-01T03:47:37;16.27;;;9.90;;
48935;SDS011;34745;52.276;10.528;2023-03-01T03:50:04;16.87;;;9.97;;
48935;SDS011;34745;52.276;10.528;2023-03-01T03:52:32;16.07;;;9.43;;
48935;SDS011;34745;52.276;10.528;2023-03-01T03:54:59;17.00;;;10.50;;
48935;SDS011;34745;52.276;10.528;2023-03-01T03:57:26;16.77;;;10.00;;
48935;SDS011;34745;52.276;10.528;2023-03-01T03:59:53;15.63;;;10.03;;
48935;SDS011;34745;52.276;10.528;2023-03-01T04:02:19;16.83;;;9.80;;
48935;SDS011;34745;52.276;10.528;2023-03-01T04:04:49;18.03;;;9.70;;
48935;SDS011;34745;52.276;10.528;2023-03-01T04:07:16;14.23;;;9.90;;
48935;SDS011;34745;52.276;10.528;2023-03-01T04:09:43;16.70;;;9.97;;
48935;SDS011;34745;52.276;10.528;2023-03-01T04:12:10;16.13;;;10.43;;
48935;SDS011;34745;52.276;10.528;2023-03-01T04:14:37;14.87;;;9.60;;
48935;SDS011;34745;52.276;10.528;2023-03-01T04:17:04;17.00;;;10.37;;
48935;SDS011;34745;52.276;10.528;2023-03-01T04:19:31;17.67;;;10.23;;
48935;SDS011;34745;52.276;10.528;2023-03-01T04:22:03;14.60;;;9.83;;
48935;SDS011;34745;52.276;10.528;2023-03-01T04:24:35;19.97;;;10.33;;
48935;SDS011;34745;52.276;10.528;2023-03-01T04:27:02;16.10;;;9.47;;
48935;SDS011;34745;52.276;10.528;2023-03-01T04:29:29;16.37;;;9.93;;
48935;SDS011;34745;52.276;10.528;2023-03-01T04:31:56;17.83;;;9.90;;
48935;SDS011;34745;52.276;10.528;2023-03-01T04:34:23;18.80;;;10.33;;
48935;SDS011;34745;52.276;10.528;2023-03-01T04:36:53;17.23;;;10.17;;
48935;SDS011;34745;52.276;10.528;2023-03-01T04:39:21;15.73;;;10.57;;
48935;SDS011;34745;52.276;10.528;2023-03-01T04:41:48;17.13;;;11.13;;
48935;SDS011;34745;52.276;10.528;2023-03-01T04:44:15;20.87;;;11.13;;
48935;SDS011;34745;52.276;10.528;2023-03-01T04:46:42;23.60;;;11.30;;
48935;SDS011;34745;52.276;10.528;2023-03-01T04:49:09;16.10;;;9.60;;
48935;SDS011;34745;52.276;10.528;2023-03-01T04:51:36;15.20;;;10.27;;
48935;SDS011;34745;52.276;10.528;2023-03-01T04:54:03;14.57;;;10.17;;
48935;SDS011;34745;52.276;10.528;2023-03-01T04:56:36;15.33;;;10.20;;
48935;SDS011;34745;52.276;10.528;2023-03-01T04:59:03;18.00;;;10.43;;
48935;SDS011;34745;52.276;10.528;2023-03-01T05:01:31;18.57;;;10.30;;
48935;SDS011;34745;52.276;10.528;2023-03-01T05:03:58;20.43;;;10.30;;
48935;SDS011;34745;52.276;10.528;2023-03-01T05:06:29;19.37;;;11.07;;
48935;SDS011;34745;52.276;10.528;2023-03-01T05:08:56;17.87;;;10.40;;
48935;SDS011;34745;52.276;10.528;2023-03-01T05:11:24;15.63;;;9.83;;
48935;SDS011;34745;52.276;10.528;2023-03-01T05:13:52;16.40;;;10.23;;
48935;SDS011;34745;52.276;10.528;2023-03-01T05:16:21;15.20;;;10.07;;
48935;SDS011;34745;52.276;10.528;2023-03-01T05:18:48;17.80;;;10.30;;
48935;SDS011;34745;52.276;10.528;2023-03-01T05:21:17;14.37;;;9.97;;
48935;SDS011;34745;52.276;10.528;2023-03-01T05:23:44;17.20;;;10.47;;
48935;SDS011;34745;52.276;10.528;2023-03-01T05:26:13;14.93;;;10.27;;
48935;SDS011;34745;52.276;10.528;2023-03-01T05:28:55;15.93;;;10.43;;
48935;SDS011;34745;52.276;10.528;2023-03-01T05:31:26;19.57;;;9.93;;
48935;SDS011;34745;52.276;10.528;2023-03-01T05:33:53;18.87;;;10.67;;
48935;SDS011;34745;52.276;10.528;2023-03-01T05:36:20;15.47;;;10.60;;
48935;SDS011;34745;52.276;10.528;2023-03-01T05:38:47;14.77;;;9.43;;
48935;SDS011;34745;52.276;10.528;2023-03-01T05:41:14;18.13;;;10.23;;
48935;SDS011;34745;52.276;10.528;2023-03-01T05:43:42;18.00;;;11.17;;
48935;SDS011;34745;52.276;10.528;2023-03-01T05:46:12;20.00;;;10.40;;
48935;SDS011;34745;52.276;10.528;2023-03-01T05:48:41;16.03;;;10.27;;
48935;SDS011;34745;52.276;10.528;2023-03-01T05:51:09;27.00;;;11.03;;
48935;SDS011;34745;52.276;10.528;2023-03-01T05:53:36;22.90;;;10.70;;
48935;SDS011;34745;52.276;10.528;2023-03-01T05:56:03;18.30;;;11.10;;
48935;SDS011;34745;52.276;10.528;2023-03-01T05:58:31;22.43;;;11.43;;
48935;SDS011;34745;52.276;10.528;2023-03-01T06:00:58;17.87;;;11.23;;
48935;SDS011;34745;52.276;10.528;2023-03-01T06:03:27;16.57;;;10.77;;
48935;SDS011;34745;52.276;10.528;2023-03-01T06:05:55;18.03;;;10.13;;
48935;SDS011;34745;52.276;10.528;2023-03-01T06:08:23;17.03;;;10.43;;
48935;SDS011;34745;52.276;10.528;2023-03-01T06:10:52;15.63;;;10.47;;
48935;SDS011;34745;52.276;10.528;2023-03-01T06:13:20;18.90;;;10.20;;
48935;SDS011;34745;52.276;10.528;2023-03-01T06:15:47;19.30;;;10.33;;
48935;SDS011;34745;52.276;10.528;2023-03-01T06:18:14;19.53;;;10.63;;
48935;SDS011;34745;52.276;10.528;2023-03-01T06:20:42;21.80;;;11.17;;
48935;SDS011;34745;52.276;10.528;2023-03-01T06:23:09;22.20;;;10.73;;
48935;SDS011;34745;52.276;10.528;2023-03-01T06:25:36;20.90;;;10.87;;
48935;SDS011;34745;52.276;10.528;2023-03-01T06:28:04;23.57;;;12.00;;
48935;SDS011;34745;52.276;10.528;2023-03-01T06:30:30;20.40;;;10.97;;
48935;SDS011;34745;52.276;10.528;2023-03-01T06:32:58;28.70;;;10.87;;
48935;SDS011;34745;52.276;10.528;2023-03-01T06:35:27;29.37;;;11.37;;
48935;SDS011;34745;52.276;10.528;2023-03-01T06:37:58;26.53;;;12.00;;
48935;SDS011;34745;52.276;10.528;2023-03-01T06:40:25;36.47;;;11.33;;
48935;SDS011;34745;52.276;10.528;2023-03-01T06:42:53;27.10;;;11.53;;
48935;SDS011;34745;52.276;10.528;2023-03-01T06:45:20;27.63;;;12.00;;
48935;SDS011;34745;52.276;10.528;2023-03-01T06:47:47;36.77;;;10.70;;
48935;SDS011;34745;52.276;10.528;2023-03-01T06:50:15;29.83;;;11.60;;
48935;SDS011;34745;52.276;10.528;2023-03-01T06:52:43;25.50;;;12.40;;
48935;SDS011;34745;52.276;10.528;2023-03-01T06:55:12;38.17;;;12.33;;
48935;SDS011;34745;52.276;10.528;2023-03-01T06:57:40;34.17;;;12.47;;
48935;SDS011;34745;52.276;10.528;2023-03-01T07:00:07;31.70;;;12.87;;
48935;SDS011;34745;52.276;10.528;2023-03-01T07:02:35;27.07;;;13.23;;
48935;SDS011;34745;52.276;10.528;2023-03-01T07:05:02;30.00;;;14.37;;
48935;SDS011;34745;52.276;10.528;2023-03-01T07:07:29;24.67;;;14.50;;
48935;SDS011;34745;52.276;10.528;2023-03-01T07:09:56;28.87;;;14.00;;
48935;SDS011;34745;52.276;10.528;2023-03-01T07:12:25;28.50;;;13.17;;
48935;SDS011;34745;52.276;10.528;2023-03-01T07:14:52;22.47;;;12.80;;
48935;SDS011;34745;52.276;10.528;2023-03-01T07:17:19;28.80;;;13.77;;
48935;SDS011;34745;52.276;10.528;2023-03-01T07:19:46;28.80;;;12.83;;
48935;SDS011;34745;52.276;10.528;2023-03-01T07:22:13;23.93;;;13.27;;
48935;SDS011;34745;52.276;10.528;2023-03-01T07:24:40;34.00;;;13.80;;
48935;SDS011;34745;52.276;10.528;2023-03-01T07:27:07;44.10;;;13.73;;
48935;SDS011;34745;52.276;10.528;2023-03-01T07:29:35;28.93;;;14.20;;
48935;SDS011;34745;52.276;10.528;2023-03-01T07:32:03;23.23;;;13.27;;
48935;SDS011;34745;52.276;10.528;2023-03-01T07:34:31;30.17;;;14.03;;
48935;SDS011;34745;52.276;10.528;2023-03-01T07:36:58;18.97;;;13.13;;
48935;SDS011;34745;52.276;10.528;2023-03-01T07:39:25;29.10;;;13.17;;
48935;SDS011;34745;52.276;10.528;2023-03-01T07:41:52;27.80;;;13.80;;
48935;SDS011;34745;52.276;10.528;2023-03-01T07:44:19;32.03;;;14.83;;
48935;SDS011;34745;52.276;10.528;2023-03-01T07:46:48;41.57;;;23.83;;
48935;SDS011;34745;52.276;10.528;2023-03-01T07:49:14;46.67;;;25.93;;
48935;SDS011;34745;52.276;10.528;2023-03-01T07:51:42;39.13;;;21.10;;
48935;SDS011;34745;52.276;10.528;2023-03-01T07:54:09;61.20;;;18.93;;
48935;SDS011;34745;52.276;10.528;2023-03-01T07:56:36;27.50;;;14.77;;
48935;SDS011;34745;52.276;10.528;2023-03-01T07:59:03;17.80;;;11.73;;
48935;SDS011;34745;52.276;10.528;2023-03-01T08:01:30;14.77;;;9.87;;
48935;SDS011;34745;52.276;10.528;2023-03-01T08:03:59;18.40;;;9.33;;
48935;SDS011;34745;52.276;10.528;2023-03-01T08:06:26;17.63;;;9.03;;
48935;SDS011;34745;52.276;10.528;2023-03-01T08:08:53;13.23;;;8.90;;
48935;SDS011;34745;52.276;10.528;2023-03-01T08:11:23;16.67;;;8.80;;
48935;SDS011;34745;52.276;10.528;2023-03-01T08:13:50;14.07;;;8.77;;
48935;SDS011;34745;52.276;10.528;2023-03-01T08:16:19;18.73;;;8.97;;
48935;SDS011;34745;52.276;10.528;2023-03-01T08:18:46;12.37;;;8.67;;
48935;SDS011;34745;52.276;10.528;2023-03-01T08:21:15;19.17;;;9.93;;
48935;SDS011;34745;52.276;10.528;2023-03-01T08:23:43;19.43;;;10.57;;
48935;SDS011;34745;52.276;10.528;2023-03-01T08:26:12;11.50;;;8.17;;
48935;SDS011;34745;52.276;10.528;2023-03-01T08:28:40;14.33;;;8.60;;
48935;SDS011;34745;52.276;10.528;2023-03-01T08:31:15;13.77;;;7.53;;
48935;SDS011;34745;52.276;10.528;2023-03-01T08:33:43;13.23;;;7.70;;
48935;SDS011;34745;52.276;10.528;2023-03-01T08:36:18;11.77;;;7.40;;
48935;SDS011;34745;52.276;10.528;2023-03-01T08:38:47;14.17;;;7.90;;
48935;SDS011;34745;52.276;10.528;2023-03-01T08:41:14;11.20;;;7.60;;
48935;SDS011;34745;52.276;10.528;2023-03-01T08:43:41;13.67;;;7.30;;
48935;SDS011;34745;52.276;10.528;2023-03-01T08:46:08;10.83;;;6.67;;
48935;SDS011;34745;52.276;10.528;2023-03-01T08:48:35;10.73;;;7.23;;
48935;SDS011;34745;52.276;10.528;2023-03-01T08:51:08;12.07;;;7.43;;
48935;SDS011;34745;52.276;10.528;2023-03-01T08:53:37;11.23;;;7.10;;
48935;SDS011;34745;52.276;10.528;2023-03-01T08:56:05;13.67;;;7.97;;
48935;SDS011;34745;52.276;10.528;2023-03-01T08:58:33;14.73;;;8.17;;
48935;SDS011;34745;52.276;10.528;2023-03-01T09:01:00;13.30;;;7.67;;
48935;SDS011;34745;52.276;10.528;2023-03-01T09:03:32;11.60;;;7.87;;
48935;SDS011;34745;52.276;10.528;2023-03-01T09:06:00;18.40;;;7.50;;
48935;SDS011;34745;52.276;10.528;2023-03-01T09:08:27;12.90;;;7.57;;
48935;SDS011;34745;52.276;10.528;2023-03-01T09:10:56;11.13;;;7.57;;
48935;SDS011;34745;52.276;10.528;2023-03-01T09:13:23;12.03;;;7.83;;
48935;SDS011;34745;52.276;10.528;2023-03-01T09:15:51;13.73;;;7.33;;
48935;SDS011;34745;52.276;10.528;2023-03-01T09:18:18;14.50;;;7.80;;
48935;SDS011;34745;52.276;10.528;2023-03-01T09:20:45;11.17;;;7.40;;
48935;SDS011;34745;52.276;10.528;2023-03-01T09:23:12;12.13;;;7.93;;
48935;SDS011;34745;52.276;10.528;2023-03-01T09:25:39;14.17;;;6.97;;
48935;SDS011;34745;52.276;10.528;2023-03-01T09:28:07;15.60;;;6.87;;
48935;SDS011;34745;52.276;10.528;2023-03-01T09:30:43;10.67;;;7.30;;
48935;SDS011;34745;52.276;10.528;2023-03-01T09:33:10;11.80;;;7.20;;
48935;SDS011;34745;52.276;10.528;2023-03-01T09:35:40;11.60;;;7.13;;
48935;SDS011;34745;52.276;10.528;2023-03-01T09:38:12;9.37;;;6.97;;
48935;SDS011;34745;52.276;10.528;2023-03-01T09:40:41;11.83;;;7.20;;
48935;SDS011;34745;52.276;10.528;2023-03-01T09:43:15;10.70;;;7.50;;
48935;SDS011;34745;52.276;10.528;2023-03-01T09:45:48;11.60;;;7.10;;
48935;SDS011;34745;52.276;10.528;2023-03-01T09:48:18;13.90;;;7.17;;
48935;SDS011;34745;52.276;10.528;2023-03-01T09:50:48;11.10;;;6.50;;
48935;SDS011;34745;52.276;10.528;2023-03-01T09:53:17;12.70;;;7.37;;
48935;SDS011;34745;52.276;10.528;2023-03-01T09:55:48;11.63;;;6.60;;
48935;SDS011;34745;52.276;10.528;2023-03-01T09:58:34;12.30;;;7.40;;
48935;SDS011;34745;52.276;10.528;2023-03-01T10:01:15;10.23;;;6.50;;
48935;SDS011;34745;52.276;10.528;2023-03-01T10:03:58;9.40;;;6.23;;
48935;SDS011;34745;52.276;10.528;2023-03-01T10:06:36;11.50;;;6.67;;
48935;SDS011;34745;52.276;10.528;2023-03-01T10:09:04;13.37;;;7.23;;
48935;SDS011;34745;52.276;10.528;2023-03-01T10:11:37;9.70;;;6.17;;
48935;SDS011;34745;52.276;10.528;2023-03-01T10:14:12;13.27;;;6.20;;
48935;SDS011;34745;52.276;10.528;2023-03-01T10:16:55;10.37;;;6.23;;
48935;SDS011;34745;52.276;10.528;2023-03-01T10:19:30;10.37;;;5.97;;
48935;SDS011;34745;52.276;10.528;2023-03-01T10:22:02;8.93;;;5.83;;
48935;SDS011;34745;52.276;10.528;2023-03-01T10:24:34;13.23;;;6.83;;
48935;SDS011;34745;52.276;10.528;2023-03-01T10:27:04;11.80;;;6.43;;
48935;SDS011;34745;52.276;10.528;2023-03-01T10:29:37;11.00;;;6.77;;
48935;SDS011;34745;52.276;10.528;2023-03-01T10:32:10;9.20;;;5.83;;
48935;SDS011;34745;52.276;10.528;2023-03-01T10:34:37;9.63;;;5.60;;
48935;SDS011;34745;52.276;10.528;2023-03-01T10:37:08;14.77;;;6.17;;
48935;SDS011;34745;52.276;10.528;2023-03-01T10:39:37;11.90;;;5.30;;
48935;SDS011;34745;52.276;10.528;2023-03-01T10:42:22;8.60;;;6.07;;
48935;SDS011;34745;52.276;10.528;2023-03-01T10:44:55;15.57;;;8.83;;
48935;SDS011;34745;52.276;10.528;2023-03-01T10:47:23;8.67;;;5.70;;
48935;SDS011;34745;52.276;10.528;2023-03-01T10:49:52;8.67;;;6.00;;
48935;SDS011;34745;52.276;10.528;2023-03-01T10:52:25;9.90;;;6.00;;
48935;SDS011;34745;52.276;10.528;2023-03-01T10:54:55;10.97;;;5.43;;
48935;SDS011;34745;52.276;10.528;2023-03-01T10:57:31;9.47;;;5.20;;
48935;SDS011;34745;52.276;10.528;2023-03-01T11:00:15;11.97;;;6.43;;
48935;SDS011;34745;52.276;10.528;2023-03-01T11:02:48;7.33;;;5.40;;
48935;SDS011;34745;52.276;10.528;2023-03-01T11:05:17;6.43;;;5.20;;
48935;SDS011;34745;52.276;10.528;2023-03-01T11:07:47;9.47;;;4.90;;
48935;SDS011;34745;52.276;10.528;2023-03-01T11:10:17;7.77;;;5.43;;
48935;SDS011;34745;52.276;10.528;2023-03-01T11:12:45;5.87;;;4.70;;
48935;SDS011;34745;52.276;10.528;2023-03-01T11:15:21;7.77;;;4.57;;
48935;SDS011;34745;52.276;10.528;2023-03-01T11:17:50;8.47;;;5.07;;
48935;SDS011;34745;52.276;10.528;2023-03-01T11:20:32;10.47;;;5.97;;
48935;SDS011;34745;52.276;10.528;2023-03-01T11:23:02;7.80;;;4.93;;
48935;SDS011;34745;52.276;10.528;2023-03-01T11:25:33;6.83;;;5.03;;
48935;SDS011;34745;52.276;10.528;2023-03-01T11:28:04;10.10;;;6.20;;
48935;SDS011;34745;52.276;10.528;2023-03-01T11:30:34;7.40;;;5.00;;
48935;SDS011;34745;52.276;10.528;2023-03-01T11:33:08;8.80;;;5.30;;
48935;SDS011;34745;52.276;10.528;2023-03-01T11:35:44;6.27;;;4.93;;
48935;SDS011;34745;52.276;10.528;2023-03-01T11:38:19;6.17;;;4.90;;
48935;SDS011;34745;52.276;10.528;2023-03-01T11:40:49;8.40;;;5.00;;
48935;SDS011;34745;52.276;10.528;2023-03-01T11:43:23;11.07;;;5.33;;
48935;SDS011;34745;52.276;10.528;2023-03-01T11:46:02;6.60;;;4.83;;
48935;SDS011;34745;52.276;10.528;2023-03-01T11:48:52;5.93;;;4.50;;
48935;SDS011;34745;52.276;10.528;2023-03-01T11:51:32;9.30;;;5.27;;
48935;SDS011;34745;52.276;10.528;2023-03-01T11:54:13;10.67;;;4.70;;
48935;SDS011;34745;52.276;10.528;2023-03-01T11:56:48;7.03;;;4.70;;
48935;SDS011;34745;52.276;10.528;2023-03-01T11:59:34;4.90;;;4.17;;
48935;SDS011;34745;52.276;10.528;2023-03-01T12:02:37;6.77;;;4.70;;
48935;SDS011;34745;52.276;10.528;2023-03-01T12:05:24;6.57;;;5.00;;
48935;SDS011;34745;52.276;10.528;2023-03-01T12:08:09;8.30;;;4.77;;
48935;SDS011;34745;52.276;10.528;2023-03-01T12:10:42;5.90;;;4.83;;
48935;SDS011;34745;52.276;10.528;2023-03-01T12:16:19;6.40;;;4.40;;
48935;SDS011;34745;52.276;10.528;2023-03-01T12:22:17;9.13;;;4.60;;
48935;SDS011;34745;52.276;10.528;2023-03-01T12:27:53;6.70;;;4.60;;
48935;SDS011;34745;52.276;10.528;2023-03-01T12:30:33;7.47;;;5.15;;
48935;SDS011;34745;52.276;10.528;2023-03-01T12:33:12;5.95;;;4.55;;
48935;SDS011;34745;52.276;10.528;2023-03-01T12:38:54;4.38;;;3.70;;
48935;SDS011;34745;52.276;10.528;2023-03-01T12:41:42;6.38;;;4.40;;
48935;SDS011;34745;52.276;10.528;2023-03-01T12:44:26;5.85;;;4.43;;
48935;SDS011;34745;52.276;10.528;2023-03-01T12:47:07;5.47;;;4.35;;
48935;SDS011;34745;52.276;10.528;2023-03-01T12:49:46;7.45;;;5.47;;
48935;SDS011;34745;52.276;10.528;2023-03-01T12:52:20;6.45;;;4.28;;
48935;SDS011;34745;52.276;10.528;2023-03-01T12:54:50;8.43;;;4.07;;
48935;SDS011;34745;52.276;10.528;2023-03-01T12:57:21;7.50;;;5.18;;
48935;SDS011;34745;52.276;10.528;2023-03-01T13:00:06;5.07;;;4.57;;
48935;SDS011;34745;52.276;10.528;2023-03-01T13:02:48;5.30;;;4.13;;
48935;SDS011;34745;52.276;10.528;2023-03-01T13:05:26;11.40;;;4.00;;
48935;SDS011;34745;52.276;10.528;2023-03-01T13:08:04;6.15;;;4.20;;
48935;SDS011;34745;52.276;10.528;2023-03-01T13:10:39;8.63;;;5.03;;
48935;SDS011;34745;52.276;10.528;2023-03-01T13:13:19;7.65;;;5.60;;
48935;SDS011;34745;52.276;10.528;2023-03-01T13:15:47;6.80;;;4.10;;
48935;SDS011;34745;52.276;10.528;2023-03-01T13:18:28;5.30;;;4.10;;
48935;SDS011;34745;52.276;10.528;2023-03-01T13:20:57;5.45;;;4.22;;
48935;SDS011;34745;52.276;10.528;2023-03-01T13:23:31;4.40;;;4.00;;
48935;SDS011;34745;52.276;10.528;2023-03-01T13:26:01;6.10;;;4.32;;
48935;SDS011;34745;52.276;10.528;2023-03-01T13:28:36;4.65;;;4.20;;
48935;SDS011;34745;52.276;10.528;2023-03-01T13:37:22;4.60;;;4.20;;
48935;SDS011;34745;52.276;10.528;2023-03-01T13:39:53;4.95;;;4.40;;
48935;SDS011;34745;52.276;10.528;2023-03-01T13:42:34;8.93;;;4.03;;
48935;SDS011;34745;52.276;10.528;2023-03-01T13:45:15;4.28;;;3.90;;
48935;SDS011;34745;52.276;10.528;2023-03-01T13:47:49;5.15;;;3.90;;
48935;SDS011;34745;52.276;10.528;2023-03-01T13:50:21;6.60;;;3.58;;
48935;SDS011;34745;52.276;10.528;2023-03-01T13:52:52;6.53;;;4.35;;
48935;SDS011;34745;52.276;10.528;2023-03-01T13:55:26;4.22;;;3.63;;
48935;SDS011;34745;52.276;10.528;2023-03-01T13:58:01;8.07;;;4.63;;
48935;SDS011;34745;52.276;10.528;2023-03-01T14:00:34;26.77;;;5.88;;
48935;SDS011;34745;52.276;10.528;2023-03-01T14:03:09;15.45;;;4.90;;
48935;SDS011;34745;52.276;10.528;2023-03-01T14:05:38;5.32;;;3.85;;
48935;SDS011;34745;52.276;10.528;2023-03-01T14:08:17;10.40;;;5.28;;
48935;SDS011;34745;52.276;10.528;2023-03-01T14:10:54;9.43;;;5.10;;
48935;SDS011;34745;52.276;10.528;2023-03-01T14:13:37;7.47;;;4.20;;
48935;SDS011;34745;52.276;10.528;2023-03-01T14:16:18;5.00;;;4.15;;
48935;SDS011;34745;52.276;10.528;2023-03-01T14:18:53;6.78;;;3.80;;
48935;SDS011;34745;52.276;10.528;2023-03-01T14:21:30;8.43;;;4.03;;
48935;SDS011;34745;52.276;10.528;2023-03-01T14:23:57;5.03;;;4.10;;
48935;SDS011;34745;52.276;10.528;2023-03-01T14:26:26;6.20;;;3.92;;
48935;SDS011;34745;52.276;10.528;2023-03-01T14:28:53;4.45;;;4.05;;
48935;SDS011;34745;52.276;10.528;2023-03-01T14:31:29;5.00;;;3.90;;
48935;SDS011;34745;52.276;10.528;2023-03-01T14:34:16;5.10;;;3.58;;
48935;SDS011;34745;52.276;10.528;2023-03-01T14:36:46;5.88;;;3.42;;
48935;SDS011;34745;52.276;10.528;2023-03-01T14:39:16;3.78;;;3.40;;
48935;SDS011;34745;52.276;10.528;2023-03-01T14:41:45;4.30;;;3.78;;
48935;SDS011;34745;52.276;10.528;2023-03-01T14:44:14;4.53;;;3.63;;
48935;SDS011;34745;52.276;10.528;2023-03-01T14:46:44;4.43;;;3.60;;
48935;SDS011;34745;52.276;10.528;2023-03-01T14:49:14;4.22;;;3.30;;
48935;SDS011;34745;52.276;10.528;2023-03-01T14:51:46;5.82;;;3.25;;
48935;SDS011;34745;52.276;10.528;2023-03-01T14:54:20;4.00;;;3.60;;
48935;SDS011;34745;52.276;10.528;2023-03-01T14:56:52;3.55;;;3.25;;
48935;SDS011;34745;52.276;10.528;2023-03-01T14:59:21;5.72;;;3.42;;